createdAt,value
2019-04-28T00:02:08.573Z,8.30
2019-04-28T00:04:39.034Z,9.00
2019-04-28T00:07:09.555Z,8.90
2019-04-28T05:32:20.878Z,10.90
2019-04-28T05:34:52.956Z,10.95
2019-04-28T05:37:23.612Z,11.28
2019-04-28T05:39:54.112Z,11.75
2019-04-28T05:42:24.642Z,10.48
2019-04-28T05:45:14.333Z,10.50
2019-04-28T05:47:44.780Z,10.72
2019-04-28T05:53:37.394Z,9.70
2019-04-28T05:56:15.880Z,10.18
2019-04-28T05:58:52.852Z,9.87
2019-04-28T06:01:51.526Z,10.30
2019-04-28T06:04:25.522Z,10.05
2019-04-28T06:07:00.319Z,10.08
2019-04-28T06:09:35.678Z,10.27
2019-04-28T06:12:10.191Z,9.73
2019-04-28T06:14:40.588Z,9.10
2019-04-28T06:17:11.061Z,9.20
2019-04-28T06:19:41.659Z,9.30
2019-04-28T06:22:12.000Z,9.00
2019-04-28T06:24:42.489Z,8.60
2019-04-28T06:27:13.036Z,9.13
2019-04-28T06:29:43.494Z,9.10
2019-04-28T06:32:13.972Z,9.28
2019-04-28T06:34:44.503Z,10.35
2019-04-28T06:37:14.887Z,9.80
2019-04-28T06:39:47.303Z,8.70
2019-04-28T06:42:17.682Z,8.93
2019-04-28T06:44:48.197Z,10.00
2019-04-28T06:47:18.693Z,8.93
2019-04-28T06:49:49.211Z,9.15
2019-04-28T06:52:19.672Z,8.70
2019-04-28T06:54:50.165Z,8.98
2019-04-28T06:57:20.735Z,9.33
2019-04-28T06:59:51.216Z,8.83
2019-04-28T07:02:21.689Z,9.10
2019-04-28T07:05:01.632Z,9.20
2019-04-28T07:07:24.428Z,8.88
2019-04-28T07:09:54.902Z,9.90
2019-04-28T07:12:25.431Z,9.38
2019-04-28T07:14:55.928Z,10.20
2019-04-28T07:17:26.401Z,9.20
2019-04-28T07:20:04.600Z,9.28
2019-04-28T07:22:35.095Z,9.13
2019-04-28T07:25:05.594Z,9.30
2019-04-28T07:27:36.121Z,8.50
2019-04-28T07:30:07.358Z,9.03
2019-04-28T07:32:37.844Z,8.23
2019-04-28T07:35:08.389Z,9.50
2019-04-28T07:37:40.978Z,7.90
2019-04-28T07:40:11.559Z,8.25
2019-04-28T07:42:42.131Z,7.60
2019-04-28T07:45:12.688Z,7.67
2019-04-28T07:47:43.188Z,8.78
2019-04-28T07:50:13.803Z,8.10
2019-04-28T07:52:49.230Z,8.10
2019-04-28T07:55:19.730Z,7.33
2019-04-28T07:57:50.197Z,8.53
2019-04-28T08:00:27.320Z,8.98
2019-04-28T08:02:57.852Z,9.13
2019-04-28T08:05:28.290Z,9.43
2019-04-28T08:07:58.806Z,10.00
2019-04-28T08:10:29.338Z,9.65
2019-04-28T08:12:59.821Z,9.50
2019-04-28T08:15:30.327Z,10.10
2019-04-28T08:18:00.786Z,10.30
2019-04-28T08:20:31.182Z,9.70
2019-04-28T08:23:01.668Z,9.78
2019-04-28T08:25:32.220Z,9.15
2019-04-28T08:28:02.831Z,8.75
2019-04-28T08:30:33.754Z,8.80
2019-04-28T08:33:15.598Z,8.90
2019-04-28T08:35:46.106Z,9.18
2019-04-28T08:38:16.613Z,7.78
2019-04-28T08:40:47.016Z,8.83
2019-04-28T08:43:17.557Z,8.85
2019-04-28T08:45:48.023Z,8.00
2019-04-28T08:48:18.535Z,8.73
2019-04-28T08:50:49.041Z,9.20
2019-04-28T08:53:19.563Z,8.85
2019-04-28T08:55:50.064Z,9.20
2019-04-28T08:58:20.581Z,8.40
2019-04-28T09:00:51.109Z,7.70
2019-04-28T09:03:21.591Z,9.20
2019-04-28T09:05:52.190Z,8.15
2019-04-28T09:08:22.632Z,8.28
2019-04-28T09:10:53.090Z,8.48
2019-04-28T09:13:23.566Z,8.05
2019-04-28T09:15:53.953Z,8.10
2019-04-28T09:18:24.471Z,8.90
2019-04-28T09:20:54.971Z,9.20
2019-04-28T09:23:25.468Z,9.50
2019-04-28T09:25:55.928Z,9.17
2019-04-28T09:28:26.418Z,9.15
2019-04-28T09:30:56.883Z,9.13
2019-04-28T09:33:27.334Z,10.20
2019-04-28T09:35:57.894Z,11.00
2019-04-28T09:38:28.354Z,9.60
2019-04-28T09:40:58.916Z,9.98
2019-04-28T09:43:47.324Z,9.68
2019-04-28T09:46:21.601Z,9.88
2019-04-28T09:48:52.134Z,10.40
2019-04-28T09:51:22.674Z,8.90
2019-04-28T09:53:53.158Z,8.88
2019-04-28T09:56:23.682Z,9.20
2019-04-28T09:58:54.153Z,7.03
2019-04-28T10:01:24.626Z,7.53
2019-04-28T10:03:55.103Z,7.40
2019-04-28T10:06:25.601Z,7.67
2019-04-28T10:08:56.085Z,6.85
2019-04-28T10:11:30.589Z,7.45
2019-04-28T10:13:58.910Z,7.30
2019-04-28T10:16:29.379Z,7.03
2019-04-28T10:18:59.917Z,6.42
2019-04-28T10:21:30.379Z,6.87
2019-04-28T10:24:00.867Z,6.70
2019-04-28T10:26:31.456Z,6.58
2019-04-28T10:29:01.983Z,6.10
2019-04-28T10:31:32.485Z,5.40
2019-04-28T10:34:04.754Z,4.97
2019-04-28T10:36:36.669Z,5.25
2019-04-28T10:39:43.746Z,5.60
2019-04-28T10:42:14.206Z,5.50
2019-04-28T10:44:46.374Z,5.33
2019-04-28T10:47:17.705Z,5.10
2019-04-28T10:49:48.288Z,5.08
2019-04-28T10:52:18.931Z,5.30
2019-04-28T10:54:49.427Z,4.47
2019-04-28T10:57:19.894Z,4.60
2019-04-28T10:59:50.470Z,4.25
2019-04-28T11:02:20.970Z,4.20
2019-04-28T11:05:13.517Z,4.30
2019-04-28T11:07:44.466Z,4.35
2019-04-28T11:10:20.118Z,4.75
2019-04-28T11:12:53.037Z,4.00
2019-04-28T11:15:33.746Z,4.10
2019-04-28T11:18:06.434Z,4.53
2019-04-28T11:20:36.950Z,5.22
2019-04-28T11:23:07.449Z,4.25
2019-04-28T11:25:38.028Z,4.83
2019-04-28T11:28:08.784Z,4.47
2019-04-28T11:30:39.253Z,4.60
2019-04-28T11:33:27.700Z,5.75
2019-04-28T11:35:58.290Z,5.45
2019-04-28T11:38:28.782Z,5.47
2019-04-28T11:40:59.300Z,4.72
2019-04-28T11:43:29.790Z,4.60
2019-04-28T11:46:00.277Z,5.37
2019-04-28T11:48:30.795Z,4.20
2019-04-28T11:51:01.384Z,3.80
2019-04-28T11:53:31.882Z,3.50
2019-04-28T11:56:02.389Z,3.08
2019-04-28T11:58:32.984Z,2.60
2019-04-28T12:01:03.814Z,2.20
2019-04-28T12:03:34.336Z,2.30
2019-04-28T12:06:04.916Z,2.70
2019-04-28T12:08:35.389Z,3.05
2019-04-28T12:11:23.541Z,3.45
2019-04-28T12:14:19.193Z,2.43
2019-04-28T12:17:17.588Z,6.75
2019-04-28T12:19:54.122Z,4.80
2019-04-28T12:22:24.725Z,3.60
2019-04-28T12:24:55.261Z,3.72
2019-04-28T12:27:25.778Z,3.57
2019-04-28T12:29:56.400Z,2.80
2019-04-28T12:32:26.867Z,2.87
2019-04-28T12:34:57.331Z,2.77
2019-04-28T12:37:27.891Z,2.50
2019-04-28T12:39:58.391Z,2.40
2019-04-28T12:42:28.821Z,2.70
2019-04-28T12:44:59.382Z,2.55
2019-04-28T12:47:29.843Z,4.50
2019-04-28T12:50:06.113Z,3.67
2019-04-28T12:52:36.699Z,3.27
2019-04-28T12:55:07.589Z,2.65
2019-04-28T12:57:38.109Z,2.80
2019-04-28T13:00:27.868Z,2.72
2019-04-28T13:03:20.321Z,2.83
2019-04-28T13:06:02.372Z,2.52
2019-04-28T13:08:23.778Z,6.40
2019-04-28T13:10:54.565Z,2.90
2019-04-28T13:13:25.046Z,2.72
2019-04-28T13:15:55.529Z,2.45
2019-04-28T13:18:26.065Z,2.80
2019-04-28T13:20:58.964Z,2.75
2019-04-28T13:23:28.806Z,2.90
2019-04-28T13:25:59.408Z,3.10
2019-04-28T13:28:29.896Z,3.42
2019-04-28T13:31:00.413Z,3.02
2019-04-28T13:33:30.935Z,2.90
2019-04-28T13:36:13.791Z,3.27
2019-04-28T13:38:33.632Z,3.20
2019-04-28T13:41:04.145Z,2.80
2019-04-28T13:43:34.816Z,2.70
2019-04-28T13:46:05.429Z,2.80
2019-04-28T13:48:35.920Z,2.30
2019-04-28T13:51:06.395Z,2.10
2019-04-28T13:53:36.870Z,1.92
2019-04-28T13:56:07.387Z,1.62
2019-04-28T13:58:47.118Z,2.10
2019-04-28T14:01:39.652Z,2.02
2019-04-28T14:04:41.290Z,1.80
2019-04-28T14:07:11.818Z,1.70
2019-04-28T14:09:42.335Z,11.83
2019-04-28T14:12:12.840Z,11.70
2019-04-28T14:14:43.433Z,4.40
2019-04-28T14:17:13.944Z,2.10
2019-04-28T14:19:44.424Z,1.90
2019-04-28T14:22:14.889Z,1.70
2019-04-28T14:24:45.357Z,2.03
2019-04-28T14:27:15.874Z,2.50
2019-04-28T14:29:46.445Z,1.90
2019-04-28T14:32:16.935Z,2.30
2019-04-28T14:34:47.480Z,2.10
2019-04-28T14:37:18.054Z,1.95
2019-04-28T14:39:48.549Z,2.00
2019-04-28T14:42:19.148Z,2.05
2019-04-28T14:44:49.681Z,2.02
2019-04-28T14:47:20.161Z,2.10
2019-04-28T14:49:50.632Z,1.90
2019-04-28T14:52:21.171Z,1.90
2019-04-28T14:54:51.670Z,1.80
2019-04-28T14:57:22.151Z,2.17
2019-04-28T14:59:52.648Z,2.00
2019-04-28T15:02:33.162Z,1.70
2019-04-28T15:05:17.140Z,2.10
2019-04-28T15:08:00.838Z,1.95
2019-04-28T15:10:50.273Z,2.20
2019-04-28T15:13:22.184Z,2.30
2019-04-28T15:15:52.727Z,1.90
2019-04-28T15:18:23.263Z,1.62
2019-04-28T15:20:53.701Z,1.67
2019-04-28T15:23:24.234Z,1.60
2019-04-28T15:25:54.828Z,29.72
2019-04-28T15:28:25.306Z,6.90
2019-04-28T15:30:55.790Z,1.50
2019-04-28T15:33:26.293Z,1.83
2019-04-28T15:35:56.731Z,1.33
2019-04-28T15:38:27.159Z,1.40
2019-04-28T15:40:57.723Z,1.00
2019-04-28T15:43:28.220Z,2.23
2019-04-28T15:45:58.674Z,0.93
2019-04-28T15:48:29.167Z,1.00
2019-04-28T15:50:59.626Z,2.20
2019-04-28T15:53:30.391Z,0.93
2019-04-28T15:56:15.937Z,1.60
2019-04-28T15:58:46.427Z,1.30
2019-04-28T16:01:16.921Z,2.27
2019-04-28T16:03:47.439Z,1.20
2019-04-28T16:06:17.933Z,9.70
2019-04-28T16:08:48.399Z,2.33
2019-04-28T16:11:18.915Z,1.93
2019-04-28T16:13:49.335Z,1.33
2019-04-28T16:16:19.869Z,1.00
2019-04-28T16:18:50.331Z,1.43
2019-04-28T16:21:20.898Z,0.97
2019-04-28T16:23:51.366Z,1.77
2019-04-28T16:26:23.075Z,0.93
2019-04-28T16:28:53.691Z,1.10
2019-04-28T16:31:24.247Z,1.80
2019-04-28T16:33:54.750Z,0.90
2019-04-28T16:36:25.243Z,1.10
2019-04-28T16:38:55.808Z,1.30
2019-04-28T16:41:31.410Z,0.80
2019-04-28T16:44:01.895Z,0.87
2019-04-28T16:46:32.357Z,0.90
2019-04-28T16:49:02.854Z,0.97
2019-04-28T16:51:33.353Z,0.67
2019-04-28T16:54:03.832Z,0.97
2019-04-28T16:56:59.409Z,1.00
2019-04-28T16:59:43.297Z,0.97
2019-04-28T17:02:23.064Z,0.80
2019-04-28T17:04:53.594Z,1.13
2019-04-28T17:07:24.058Z,1.00
2019-04-28T17:09:54.573Z,0.80
2019-04-28T17:12:25.071Z,1.10
2019-04-28T17:14:55.581Z,1.00
2019-04-28T17:17:26.099Z,0.97
2019-04-28T17:19:56.585Z,1.43
2019-04-28T17:22:27.063Z,1.35
2019-04-28T17:24:57.599Z,1.10
2019-04-28T17:27:28.034Z,1.40
2019-04-28T17:29:58.534Z,1.60
2019-04-28T17:32:29.098Z,1.73
2019-04-28T17:34:59.660Z,1.65
2019-04-28T17:37:30.147Z,1.70
2019-04-28T17:40:00.756Z,1.73
2019-04-28T17:42:31.235Z,2.20
2019-04-28T17:45:01.766Z,2.15
2019-04-28T17:47:32.334Z,2.03
2019-04-28T17:50:02.861Z,2.33
2019-04-28T17:52:33.425Z,2.60
2019-04-28T17:55:04.224Z,2.30
2019-04-28T17:57:34.714Z,2.60
2019-04-28T18:00:12.718Z,2.17
2019-04-28T18:03:02.750Z,2.27
2019-04-28T18:05:41.189Z,2.00
2019-04-28T18:08:20.807Z,2.08
2019-04-28T18:10:43.871Z,2.20
2019-04-28T18:13:14.879Z,2.20
2019-04-28T18:16:12.008Z,1.60
2019-04-28T18:18:45.441Z,2.30
2019-04-28T18:21:15.967Z,1.80
2019-04-28T18:23:46.459Z,1.85
2019-04-28T18:26:17.037Z,1.80
2019-04-28T18:28:47.592Z,1.40
2019-04-28T18:31:37.072Z,1.70
2019-04-28T18:34:25.376Z,1.37
2019-04-28T18:37:21.049Z,1.32
2019-04-28T18:40:25.697Z,1.37
2019-04-28T18:43:11.824Z,1.40
2019-04-28T18:45:42.380Z,2.22
2019-04-28T18:48:12.955Z,2.10
2019-04-28T18:50:43.513Z,1.62
2019-04-28T18:53:14.101Z,1.87
2019-04-28T18:55:44.604Z,1.60
2019-04-28T18:58:15.178Z,1.52
2019-04-28T19:00:52.360Z,1.30
2019-04-28T19:03:23.578Z,1.73
2019-04-28T19:05:54.345Z,1.70
2019-04-28T19:08:48.454Z,1.22
2019-04-28T19:11:18.654Z,1.47
2019-04-28T19:13:53.822Z,1.80
2019-04-28T19:16:41.945Z,1.80
2019-04-28T19:19:13.737Z,1.70
2019-04-28T19:21:54.618Z,1.42
2019-04-28T19:24:26.216Z,1.72
2019-04-28T19:26:56.719Z,2.20
2019-04-28T19:29:27.775Z,1.70
2019-04-28T19:31:58.292Z,1.87
2019-04-28T19:34:28.865Z,1.72
2019-04-28T19:36:59.445Z,2.10
2019-04-28T19:39:30.004Z,2.00
2019-04-28T19:42:00.546Z,1.70
2019-04-28T19:44:31.059Z,1.67
2019-04-28T19:47:01.560Z,1.90
2019-04-28T19:49:32.035Z,2.00
2019-04-28T19:52:02.530Z,2.47
2019-04-28T19:54:36.576Z,1.70
2019-04-28T19:57:12.723Z,2.12
2019-04-28T20:00:00.940Z,2.20
2019-04-28T20:02:34.237Z,2.80
2019-04-28T20:05:05.049Z,2.90
2019-04-28T20:07:35.660Z,2.85
2019-04-28T20:10:06.799Z,3.00
2019-04-28T20:12:37.259Z,2.55
2019-04-28T20:15:07.967Z,3.33
2019-04-28T20:17:38.494Z,2.87
2019-04-28T20:20:09.165Z,2.30
2019-04-28T20:22:39.633Z,2.50
2019-04-28T20:25:10.216Z,2.80
2019-04-28T20:27:40.734Z,2.92
2019-04-28T20:30:11.627Z,5.33
2019-04-28T20:32:46.656Z,5.12
2019-04-28T20:35:21.682Z,5.53
2019-04-28T20:38:13.976Z,7.20
2019-04-28T20:40:50.794Z,6.45
2019-04-28T20:43:22.085Z,4.42
2019-04-28T20:45:52.628Z,4.60
2019-04-28T20:48:23.019Z,4.30
2019-04-28T20:50:53.553Z,3.75
2019-04-28T20:53:24.024Z,3.42
2019-04-28T20:55:54.514Z,3.50
2019-04-28T20:58:24.976Z,3.35
2019-04-28T21:00:55.450Z,3.25
2019-04-28T21:03:25.997Z,2.67
2019-04-28T21:05:56.485Z,2.60
2019-04-28T21:08:26.952Z,3.30
2019-04-28T21:10:57.475Z,4.67
2019-04-28T21:13:28.025Z,4.30
2019-04-28T21:15:58.489Z,3.80
2019-04-28T21:18:29.099Z,3.50
2019-04-28T21:20:59.652Z,3.70
2019-04-28T21:23:30.238Z,3.50
2019-04-28T21:26:00.732Z,3.15
2019-04-28T21:28:31.247Z,3.58
2019-04-28T21:31:01.725Z,2.98
2019-04-28T21:33:32.217Z,3.00
2019-04-28T21:36:02.690Z,3.20
2019-04-28T21:38:33.172Z,3.17
2019-04-28T21:41:03.675Z,2.90
2019-04-28T21:43:59.049Z,3.10
2019-04-28T21:46:41.270Z,3.30
2019-04-28T21:49:21.284Z,2.62
2019-04-28T21:51:51.813Z,3.10
2019-04-28T21:54:22.313Z,3.77
2019-04-28T21:56:52.782Z,3.50
2019-04-28T21:59:23.282Z,3.77
2019-04-28T22:01:53.759Z,3.50
2019-04-28T22:04:24.221Z,4.10
2019-04-28T22:06:54.731Z,3.80
2019-04-28T22:09:25.348Z,3.50
2019-04-28T22:11:55.908Z,3.80
2019-04-28T22:14:26.412Z,4.90
2019-04-28T22:16:56.889Z,4.40
2019-04-28T22:19:27.355Z,4.40
2019-04-28T22:21:57.861Z,4.70
2019-04-28T22:24:36.837Z,4.50
2019-04-28T22:27:08.667Z,3.90
2019-04-28T22:29:39.188Z,4.60
2019-04-28T22:32:09.654Z,4.80
2019-04-28T22:34:40.170Z,4.40
2019-04-28T22:37:10.566Z,4.92
2019-04-28T22:39:41.060Z,5.12
2019-04-28T22:42:11.625Z,5.70
2019-04-28T22:44:42.109Z,5.20
2019-04-28T22:47:12.590Z,5.53
2019-04-28T22:49:43.077Z,6.50
2019-04-28T22:52:13.542Z,6.15
2019-04-28T22:55:02.962Z,5.70
2019-04-28T22:57:58.419Z,6.03
2019-04-28T23:00:52.575Z,6.37
2019-04-28T23:03:40.695Z,6.45
2019-04-28T23:06:11.163Z,6.15
2019-04-28T23:08:41.747Z,6.62
2019-04-28T23:11:12.249Z,7.22
2019-04-28T23:13:42.755Z,7.60
2019-04-28T23:16:13.362Z,7.87
2019-04-28T23:18:43.955Z,7.85
2019-04-28T23:21:35.359Z,7.90
2019-04-28T23:24:05.832Z,8.07
2019-04-28T23:26:36.298Z,7.58
2019-04-28T23:29:06.888Z,7.90
2019-04-28T23:31:37.357Z,7.78
2019-04-28T23:34:07.827Z,7.50
2019-04-28T23:36:38.418Z,7.40
2019-04-28T23:39:09.372Z,7.58
2019-04-28T23:41:55.243Z,8.40
2019-04-28T23:44:25.751Z,7.80
2019-04-28T23:46:59.852Z,7.80
2019-04-28T23:49:31.651Z,7.60
2019-04-28T23:52:19.956Z,8.13
2019-04-28T23:54:51.920Z,8.35
2019-04-28T23:57:22.412Z,7.12
2019-04-28T23:59:52.978Z,7.47
